Muelle Paraguana, Venezuela
Current Conditions -  °F | °C
As of 2:00 AM on Wednesday 26 Nov 2014 (Local Time) from TNCA Reporting Station
Scattered Clouds Scattered Clouds  
Wind Chill: 79°   Ceiling: Unl
Heat Index: 82°   Visibility: 6mi
Dew Point: 75°   Wind: 12mph
Humidity: 89%   Direction: 80°E
Pressure: 29.83"   Gusts: NA
Location:  11.78°N, 70.15°W
Report Text: TNCA 260600Z 08010KT 9999 SCT017 26/24 Q1010 A2985 NOSIG
Loading
Personal Weather Stations






























Interactive Weather Map New forecast layout! Learn more

10-Day Weather Forecast

Advertisements
Track Severe Weather on mobile